sensor_id;sensor_type;location;lat;lon;timestamp;pressure;altitude;pressure_sealevel;temperature;humidity
9695;BME280;4690;52.422;13.486;2024-01-25T00:09:30;101304.88;;;9.82;67.76
9695;BME280;4690;52.422;13.486;2024-01-25T00:11:56;101298.09;;;9.71;67.92
9695;BME280;4690;52.422;13.486;2024-01-25T00:14:22;101300.66;;;9.73;69.07
9695;BME280;4690;52.422;13.486;2024-01-25T00:16:48;101305.31;;;9.92;68.54
9695;BME280;4690;52.422;13.486;2024-01-25T00:19:13;101304.66;;;9.77;68.39
9695;BME280;4690;52.422;13.486;2024-01-25T00:21:43;101310.75;;;9.72;69.43
9695;BME280;4690;52.422;13.486;2024-01-25T00:24:12;101316.84;;;9.68;69.64
9695;BME280;4690;52.422;13.486;2024-01-25T00:26:38;101305.94;;;9.81;69.38
9695;BME280;4690;52.422;13.486;2024-01-25T00:29:04;101313.53;;;9.85;69.08
9695;BME280;4690;52.422;13.486;2024-01-25T00:31:31;101324.22;;;9.67;69.20
9695;BME280;4690;52.422;13.486;2024-01-25T00:34:01;101310.53;;;9.74;69.64
9695;BME280;4690;52.422;13.486;2024-01-25T00:36:27;101317.69;;;9.68;70.00
9695;BME280;4690;52.422;13.486;2024-01-25T00:38:53;101327.75;;;9.54;70.39
9695;BME280;4690;52.422;13.486;2024-01-25T00:41:19;101317.25;;;9.58;70.54
9695;BME280;4690;52.422;13.486;2024-01-25T00:43:46;101334.09;;;9.55;70.54
9695;BME280;4690;52.422;13.486;2024-01-25T00:46:12;101309.47;;;9.55;70.11
9695;BME280;4690;52.422;13.486;2024-01-25T00:48:38;101326.94;;;9.60;70.32
9695;BME280;4690;52.422;13.486;2024-01-25T00:51:20;101327.16;;;9.65;70.35
9695;BME280;4690;52.422;13.486;2024-01-25T00:53:46;101322.13;;;9.69;70.07
9695;BME280;4690;52.422;13.486;2024-01-25T00:56:12;101340.03;;;9.72;69.45
9695;BME280;4690;52.422;13.486;2024-01-25T00:58:38;101326.53;;;9.63;69.64
9695;BME280;4690;52.422;13.486;2024-01-25T01:01:05;101334.94;;;9.55;69.80
9695;BME280;4690;52.422;13.486;2024-01-25T01:03:31;101330.31;;;9.62;69.71
9695;BME280;4690;52.422;13.486;2024-01-25T01:05:57;101316.19;;;9.65;69.49
9695;BME280;4690;52.422;13.486;2024-01-25T01:08:24;101330.00;;;9.37;70.10
9695;BME280;4690;52.422;13.486;2024-01-25T01:10:50;101321.84;;;9.51;69.94
9695;BME280;4690;52.422;13.486;2024-01-25T01:13:16;101313.69;;;9.64;69.50
9695;BME280;4690;52.422;13.486;2024-01-25T01:15:42;101327.72;;;9.48;69.37
9695;BME280;4690;52.422;13.486;2024-01-25T01:18:07;101332.63;;;9.59;69.22
9695;BME280;4690;52.422;13.486;2024-01-25T01:20:33;101316.00;;;9.60;69.58
9695;BME280;4690;52.422;13.486;2024-01-25T01:22:59;101326.66;;;9.35;70.10
9695;BME280;4690;52.422;13.486;2024-01-25T01:25:24;101325.16;;;9.33;69.60
9695;BME280;4690;52.422;13.486;2024-01-25T01:27:50;101342.59;;;9.32;70.48
9695;BME280;4690;52.422;13.486;2024-01-25T01:30:16;101316.16;;;9.46;69.35
9695;BME280;4690;52.422;13.486;2024-01-25T01:32:41;101329.44;;;9.55;69.34
9695;BME280;4690;52.422;13.486;2024-01-25T01:35:07;101334.75;;;9.63;68.41
9695;BME280;4690;52.422;13.486;2024-01-25T01:37:33;101328.19;;;9.58;68.02
9695;BME280;4690;52.422;13.486;2024-01-25T01:39:59;101328.81;;;9.53;68.65
9695;BME280;4690;52.422;13.486;2024-01-25T01:42:27;101339.34;;;9.56;68.48
9695;BME280;4690;52.422;13.486;2024-01-25T01:44:53;101332.56;;;9.39;68.24
9695;BME280;4690;52.422;13.486;2024-01-25T01:47:19;101339.34;;;9.56;68.11
9695;BME280;4690;52.422;13.486;2024-01-25T01:49:46;101334.69;;;9.57;68.20
9695;BME280;4690;52.422;13.486;2024-01-25T01:52:12;101355.38;;;9.73;68.28
9695;BME280;4690;52.422;13.486;2024-01-25T01:54:39;101351.78;;;9.59;67.89
9695;BME280;4690;52.422;13.486;2024-01-25T01:57:07;101352.25;;;9.76;68.11
9695;BME280;4690;52.422;13.486;2024-01-25T01:59:33;101367.22;;;9.80;67.54
9695;BME280;4690;52.422;13.486;2024-01-25T02:01:59;101358.78;;;9.81;66.94
9695;BME280;4690;52.422;13.486;2024-01-25T02:04:25;101359.38;;;9.63;67.63
9695;BME280;4690;52.422;13.486;2024-01-25T02:06:51;101351.34;;;9.55;67.92
9695;BME280;4690;52.422;13.486;2024-01-25T02:09:17;101355.16;;;9.61;68.44
9695;BME280;4690;52.422;13.486;2024-01-25T02:11:43;101362.34;;;9.69;67.79
9695;BME280;4690;52.422;13.486;2024-01-25T02:14:08;101370.09;;;9.65;67.71
9695;BME280;4690;52.422;13.486;2024-01-25T02:16:37;101381.50;;;9.82;67.21
9695;BME280;4690;52.422;13.486;2024-01-25T02:19:03;101388.41;;;9.58;67.46
9695;BME280;4690;52.422;13.486;2024-01-25T02:21:29;101383.13;;;9.56;67.64
9695;BME280;4690;52.422;13.486;2024-01-25T02:23:55;101389.00;;;9.53;67.79
9695;BME280;4690;52.422;13.486;2024-01-25T02:26:21;101383.91;;;9.43;67.85
9695;BME280;4690;52.422;13.486;2024-01-25T02:28:46;101381.19;;;9.50;67.88
9695;BME280;4690;52.422;13.486;2024-01-25T02:31:12;101369.44;;;9.56;67.74
9695;BME280;4690;52.422;13.486;2024-01-25T02:33:38;101371.31;;;9.49;68.11
9695;BME280;4690;52.422;13.486;2024-01-25T02:36:04;101379.53;;;9.49;67.73
9695;BME280;4690;52.422;13.486;2024-01-25T02:38:30;101382.66;;;9.46;67.77
9695;BME280;4690;52.422;13.486;2024-01-25T02:40:55;101386.84;;;9.42;68.88
9695;BME280;4690;52.422;13.486;2024-01-25T02:43:21;101385.69;;;9.64;67.67
9695;BME280;4690;52.422;13.486;2024-01-25T02:45:48;101387.16;;;9.60;67.38
9695;BME280;4690;52.422;13.486;2024-01-25T02:48:14;101377.88;;;9.61;67.44
9695;BME280;4690;52.422;13.486;2024-01-25T02:50:40;101361.00;;;9.51;68.51
9695;BME280;4690;52.422;13.486;2024-01-25T02:53:06;101361.47;;;9.61;67.99
9695;BME280;4690;52.422;13.486;2024-01-25T02:55:32;101366.28;;;9.59;67.27
9695;BME280;4690;52.422;13.486;2024-01-25T02:57:57;101379.31;;;9.51;67.79
9695;BME280;4690;52.422;13.486;2024-01-25T03:00:23;101381.31;;;9.29;68.59
9695;BME280;4690;52.422;13.486;2024-01-25T03:02:49;101380.88;;;9.25;68.25
9695;BME280;4690;52.422;13.486;2024-01-25T03:05:15;101402.84;;;9.38;68.10
9695;BME280;4690;52.422;13.486;2024-01-25T03:07:40;101384.94;;;9.36;68.64
9695;BME280;4690;52.422;13.486;2024-01-25T03:10:07;101385.25;;;9.19;68.31
9695;BME280;4690;52.422;13.486;2024-01-25T03:12:33;101380.91;;;9.32;68.61
9695;BME280;4690;52.422;13.486;2024-01-25T03:14:58;101387.91;;;9.41;68.39
9695;BME280;4690;52.422;13.486;2024-01-25T03:17:24;101394.56;;;9.32;68.23
9695;BME280;4690;52.422;13.486;2024-01-25T03:19:50;101379.53;;;9.49;67.26
9695;BME280;4690;52.422;13.486;2024-01-25T03:22:15;101390.47;;;9.49;66.91
9695;BME280;4690;52.422;13.486;2024-01-25T03:24:41;101394.00;;;9.43;67.37
9695;BME280;4690;52.422;13.486;2024-01-25T03:27:07;101406.50;;;9.17;67.43
9695;BME280;4690;52.422;13.486;2024-01-25T03:29:42;101401.53;;;9.34;67.23
9695;BME280;4690;52.422;13.486;2024-01-25T03:32:11;101386.34;;;9.25;67.29
9695;BME280;4690;52.422;13.486;2024-01-25T03:34:37;101411.78;;;9.26;67.11
9695;BME280;4690;52.422;13.486;2024-01-25T03:37:03;101403.16;;;9.22;68.02
9695;BME280;4690;52.422;13.486;2024-01-25T03:39:29;101412.31;;;9.08;67.98
9695;BME280;4690;52.422;13.486;2024-01-25T03:41:55;101430.94;;;9.26;67.42
9695;BME280;4690;52.422;13.486;2024-01-25T03:44:20;101416.50;;;9.38;67.02
9695;BME280;4690;52.422;13.486;2024-01-25T03:46:46;101424.72;;;9.38;66.81
9695;BME280;4690;52.422;13.486;2024-01-25T03:49:12;101431.88;;;9.39;66.63
9695;BME280;4690;52.422;13.486;2024-01-25T03:51:38;101419.25;;;9.38;66.45
9695;BME280;4690;52.422;13.486;2024-01-25T03:54:03;101405.38;;;9.05;66.99
9695;BME280;4690;52.422;13.486;2024-01-25T03:56:29;101410.13;;;9.25;67.22
9695;BME280;4690;52.422;13.486;2024-01-25T03:58:55;101416.75;;;9.43;66.78
9695;BME280;4690;52.422;13.486;2024-01-25T04:01:21;101425.56;;;9.39;66.72
9695;BME280;4690;52.422;13.486;2024-01-25T04:03:46;101410.78;;;9.33;66.89
9695;BME280;4690;52.422;13.486;2024-01-25T04:06:12;101424.84;;;9.24;66.83
9695;BME280;4690;52.422;13.486;2024-01-25T04:08:38;101412.75;;;9.11;66.99
9695;BME280;4690;52.422;13.486;2024-01-25T04:11:04;101415.50;;;9.11;67.34
9695;BME280;4690;52.422;13.486;2024-01-25T04:13:29;101428.97;;;9.13;67.15
9695;BME280;4690;52.422;13.486;2024-01-25T04:15:56;101418.56;;;9.30;67.12
9695;BME280;4690;52.422;13.486;2024-01-25T04:18:22;101421.72;;;9.33;67.07
9695;BME280;4690;52.422;13.486;2024-01-25T04:20:49;101431.19;;;9.31;66.11
9695;BME280;4690;52.422;13.486;2024-01-25T04:23:16;101440.72;;;9.41;66.31
9695;BME280;4690;52.422;13.486;2024-01-25T04:25:42;101445.25;;;9.28;66.43
9695;BME280;4690;52.422;13.486;2024-01-25T04:28:08;101449.13;;;9.40;66.43
9695;BME280;4690;52.422;13.486;2024-01-25T04:30:34;101454.72;;;9.25;66.44
9695;BME280;4690;52.422;13.486;2024-01-25T04:32:59;101462.66;;;9.20;66.50
9695;BME280;4690;52.422;13.486;2024-01-25T04:35:25;101470.03;;;9.19;67.27
9695;BME280;4690;52.422;13.486;2024-01-25T04:37:51;101461.53;;;9.36;67.06
9695;BME280;4690;52.422;13.486;2024-01-25T04:40:17;101466.78;;;9.37;66.38
9695;BME280;4690;52.422;13.486;2024-01-25T04:42:43;101463.00;;;9.38;66.80
9695;BME280;4690;52.422;13.486;2024-01-25T04:45:09;101477.56;;;9.46;66.52
9695;BME280;4690;52.422;13.486;2024-01-25T04:47:34;101491.50;;;9.23;66.64
9695;BME280;4690;52.422;13.486;2024-01-25T04:50:02;101502.03;;;9.26;67.50
9695;BME280;4690;52.422;13.486;2024-01-25T04:52:28;101480.91;;;9.41;67.30
9695;BME280;4690;52.422;13.486;2024-01-25T04:54:54;101489.47;;;9.31;67.02
9695;BME280;4690;52.422;13.486;2024-01-25T04:57:19;101501.56;;;9.43;66.68
9695;BME280;4690;52.422;13.486;2024-01-25T04:59:45;101490.16;;;9.40;66.34
9695;BME280;4690;52.422;13.486;2024-01-25T05:02:11;101481.41;;;9.23;67.36
9695;BME280;4690;52.422;13.486;2024-01-25T05:04:36;101513.81;;;9.26;67.59
9695;BME280;4690;52.422;13.486;2024-01-25T05:07:02;101481.38;;;9.16;68.06
9695;BME280;4690;52.422;13.486;2024-01-25T05:09:28;101503.97;;;9.04;68.41
9695;BME280;4690;52.422;13.486;2024-01-25T05:11:54;101503.50;;;9.22;68.43
9695;BME280;4690;52.422;13.486;2024-01-25T05:14:24;101495.22;;;9.15;68.30
9695;BME280;4690;52.422;13.486;2024-01-25T05:16:50;101503.78;;;9.33;67.72
9695;BME280;4690;52.422;13.486;2024-01-25T05:19:16;101509.25;;;9.33;67.96
9695;BME280;4690;52.422;13.486;2024-01-25T05:21:42;101505.88;;;9.31;67.31
9695;BME280;4690;52.422;13.486;2024-01-25T05:24:08;101518.97;;;9.36;68.04
9695;BME280;4690;52.422;13.486;2024-01-25T05:26:35;101523.13;;;9.32;68.00
9695;BME280;4690;52.422;13.486;2024-01-25T05:29:01;101531.13;;;9.33;67.80
9695;BME280;4690;52.422;13.486;2024-01-25T05:31:27;101538.06;;;9.29;68.37
9695;BME280;4690;52.422;13.486;2024-01-25T05:33:52;101513.63;;;9.28;67.75
9695;BME280;4690;52.422;13.486;2024-01-25T05:36:18;101539.72;;;9.24;67.21
9695;BME280;4690;52.422;13.486;2024-01-25T05:38:44;101545.66;;;9.06;67.49
9695;BME280;4690;52.422;13.486;2024-01-25T05:41:09;101534.38;;;9.15;66.56
9695;BME280;4690;52.422;13.486;2024-01-25T05:43:35;101535.66;;;9.19;66.43
9695;BME280;4690;52.422;13.486;2024-01-25T05:46:01;101541.94;;;9.13;66.69
9695;BME280;4690;52.422;13.486;2024-01-25T05:48:27;101548.81;;;9.09;66.66
9695;BME280;4690;52.422;13.486;2024-01-25T05:50:53;101548.69;;;9.17;67.13
9695;BME280;4690;52.422;13.486;2024-01-25T05:53:19;101573.59;;;9.01;67.26
9695;BME280;4690;52.422;13.486;2024-01-25T05:55:45;101551.38;;;8.89;68.60
9695;BME280;4690;52.422;13.486;2024-01-25T05:58:11;101541.00;;;9.06;67.98
9695;BME280;4690;52.422;13.486;2024-01-25T06:00:37;101555.44;;;8.93;68.75
9695;BME280;4690;52.422;13.486;2024-01-25T06:03:02;101565.19;;;9.03;68.46
9695;BME280;4690;52.422;13.486;2024-01-25T06:05:28;101554.28;;;9.09;67.93
9695;BME280;4690;52.422;13.486;2024-01-25T06:07:54;101560.53;;;9.25;68.01
9695;BME280;4690;52.422;13.486;2024-01-25T06:10:19;101560.84;;;9.15;68.06
9695;BME280;4690;52.422;13.486;2024-01-25T06:12:45;101570.06;;;9.07;68.11
9695;BME280;4690;52.422;13.486;2024-01-25T06:15:11;101570.94;;;9.14;68.05
9695;BME280;4690;52.422;13.486;2024-01-25T06:17:36;101589.69;;;9.17;68.09
9695;BME280;4690;52.422;13.486;2024-01-25T06:20:03;101593.22;;;9.11;68.03
9695;BME280;4690;52.422;13.486;2024-01-25T06:22:30;101585.88;;;9.12;68.50
9695;BME280;4690;52.422;13.486;2024-01-25T06:24:56;101595.56;;;9.14;67.88
9695;BME280;4690;52.422;13.486;2024-01-25T06:27:21;101604.16;;;9.11;68.09
9695;BME280;4690;52.422;13.486;2024-01-25T06:29:47;101604.81;;;9.13;68.30
9695;BME280;4690;52.422;13.486;2024-01-25T06:32:13;101594.47;;;9.09;68.59
9695;BME280;4690;52.422;13.486;2024-01-25T06:34:38;101607.28;;;9.08;68.23
9695;BME280;4690;52.422;13.486;2024-01-25T06:37:04;101604.59;;;9.15;67.96
9695;BME280;4690;52.422;13.486;2024-01-25T06:39:30;101616.59;;;9.14;68.66
9695;BME280;4690;52.422;13.486;2024-01-25T06:41:56;101612.56;;;8.88;68.35
9695;BME280;4690;52.422;13.486;2024-01-25T06:44:21;101626.38;;;9.02;68.30
9695;BME280;4690;52.422;13.486;2024-01-25T06:46:47;101629.94;;;9.02;68.23
9695;BME280;4690;52.422;13.486;2024-01-25T06:49:13;101635.69;;;9.07;67.84
9695;BME280;4690;52.422;13.486;2024-01-25T06:51:39;101642.13;;;9.21;67.60
9695;BME280;4690;52.422;13.486;2024-01-25T06:54:05;101643.75;;;9.15;67.33
9695;BME280;4690;52.422;13.486;2024-01-25T06:56:30;101644.00;;;9.20;67.23
9695;BME280;4690;52.422;13.486;2024-01-25T06:58:56;101650.78;;;9.03;68.16
9695;BME280;4690;52.422;13.486;2024-01-25T07:01:23;101664.31;;;9.11;67.48
9695;BME280;4690;52.422;13.486;2024-01-25T07:03:49;101652.53;;;9.11;67.67
9695;BME280;4690;52.422;13.486;2024-01-25T07:06:19;101667.56;;;9.00;67.14
9695;BME280;4690;52.422;13.486;2024-01-25T07:08:45;101679.44;;;9.07;66.74
9695;BME280;4690;52.422;13.486;2024-01-25T07:11:11;101684.34;;;8.97;67.01
9695;BME280;4690;52.422;13.486;2024-01-25T07:13:37;101701.19;;;9.15;67.02
9695;BME280;4690;52.422;13.486;2024-01-25T07:16:03;101718.09;;;9.04;67.41
9695;BME280;4690;52.422;13.486;2024-01-25T07:18:29;101701.41;;;8.99;67.50
9695;BME280;4690;52.422;13.486;2024-01-25T07:20:54;101693.59;;;8.96;67.80
9695;BME280;4690;52.422;13.486;2024-01-25T07:23:21;101693.16;;;9.14;67.59
9695;BME280;4690;52.422;13.486;2024-01-25T07:25:48;101690.97;;;9.24;67.21
9695;BME280;4690;52.422;13.486;2024-01-25T07:28:13;101696.63;;;9.23;67.52
9695;BME280;4690;52.422;13.486;2024-01-25T07:30:39;101709.50;;;9.29;67.48
9695;BME280;4690;52.422;13.486;2024-01-25T07:33:05;101712.97;;;9.37;66.81
9695;BME280;4690;52.422;13.486;2024-01-25T07:35:32;101718.31;;;9.46;66.88
9695;BME280;4690;52.422;13.486;2024-01-25T07:37:57;101720.84;;;9.47;66.92
9695;BME280;4690;52.422;13.486;2024-01-25T07:40:23;101725.78;;;9.37;67.40
9695;BME280;4690;52.422;13.486;2024-01-25T07:42:49;101726.91;;;9.42;67.20
9695;BME280;4690;52.422;13.486;2024-01-25T07:45:14;101728.81;;;9.42;67.42
9695;BME280;4690;52.422;13.486;2024-01-25T07:47:43;101714.69;;;9.38;67.75
9695;BME280;4690;52.422;13.486;2024-01-25T07:50:10;101729.94;;;9.11;68.18
9695;BME280;4690;52.422;13.486;2024-01-25T07:52:35;101730.41;;;9.15;68.45
9695;BME280;4690;52.422;13.486;2024-01-25T07:55:01;101730.53;;;9.28;67.32
9695;BME280;4690;52.422;13.486;2024-01-25T07:57:27;101732.06;;;9.31;68.08
9695;BME280;4690;52.422;13.486;2024-01-25T07:59:52;101740.31;;;9.16;68.03
9695;BME280;4690;52.422;13.486;2024-01-25T08:02:18;101736.47;;;9.32;68.60
9695;BME280;4690;52.422;13.486;2024-01-25T08:04:44;101738.84;;;9.35;68.37
9695;BME280;4690;52.422;13.486;2024-01-25T08:07:11;101753.41;;;9.42;68.45
9695;BME280;4690;52.422;13.486;2024-01-25T08:09:36;101754.09;;;9.08;69.40
9695;BME280;4690;52.422;13.486;2024-01-25T08:12:02;101735.28;;;9.19;69.17
9695;BME280;4690;52.422;13.486;2024-01-25T08:14:28;101760.25;;;8.80;69.71
9695;BME280;4690;52.422;13.486;2024-01-25T08:16:54;101759.28;;;9.03;69.77
9695;BME280;4690;52.422;13.486;2024-01-25T08:19:21;101770.00;;;9.19;68.68
9695;BME280;4690;52.422;13.486;2024-01-25T08:21:47;101774.59;;;9.33;67.88
9695;BME280;4690;52.422;13.486;2024-01-25T08:24:12;101788.09;;;9.35;67.15
9695;BME280;4690;52.422;13.486;2024-01-25T08:26:38;101787.03;;;9.36;67.14
9695;BME280;4690;52.422;13.486;2024-01-25T08:29:04;101790.59;;;9.36;67.63
9695;BME280;4690;52.422;13.486;2024-01-25T08:31:30;101786.63;;;9.39;66.81
9695;BME280;4690;52.422;13.486;2024-01-25T08:33:55;101793.66;;;9.27;67.20
9695;BME280;4690;52.422;13.486;2024-01-25T08:36:21;101809.59;;;9.23;66.99
9695;BME280;4690;52.422;13.486;2024-01-25T08:38:48;101808.91;;;9.36;67.48
9695;BME280;4690;52.422;13.486;2024-01-25T08:41:14;101809.75;;;9.36;66.47
9695;BME280;4690;52.422;13.486;2024-01-25T08:43:41;101798.88;;;9.43;66.19
9695;BME280;4690;52.422;13.486;2024-01-25T08:46:08;101789.19;;;9.40;66.27
9695;BME280;4690;52.422;13.486;2024-01-25T08:48:34;101819.53;;;9.46;65.74
9695;BME280;4690;52.422;13.486;2024-01-25T08:51:00;101808.28;;;9.55;64.96
9695;BME280;4690;52.422;13.486;2024-01-25T08:53:25;101807.09;;;9.43;65.62
9695;BME280;4690;52.422;13.486;2024-01-25T08:55:56;101822.75;;;9.49;65.12
9695;BME280;4690;52.422;13.486;2024-01-25T08:58:22;101810.38;;;9.53;65.83
9695;BME280;4690;52.422;13.486;2024-01-25T09:00:48;101817.69;;;9.68;64.69
9695;BME280;4690;52.422;13.486;2024-01-25T09:03:15;101815.03;;;9.74;64.56
9695;BME280;4690;52.422;13.486;2024-01-25T09:05:40;101820.22;;;9.69;64.87
9695;BME280;4690;52.422;13.486;2024-01-25T09:08:12;101816.22;;;9.50;64.85
9695;BME280;4690;52.422;13.486;2024-01-25T09:10:38;101820.41;;;9.68;64.51
9695;BME280;4690;52.422;13.486;2024-01-25T09:13:04;101808.94;;;9.79;65.03
9695;BME280;4690;52.422;13.486;2024-01-25T09:15:30;101819.44;;;9.75;65.05
9695;BME280;4690;52.422;13.486;2024-01-25T09:17:56;101824.13;;;9.81;65.00
9695;BME280;4690;52.422;13.486;2024-01-25T09:20:21;101832.47;;;9.73;65.09
9695;BME280;4690;52.422;13.486;2024-01-25T09:22:47;101846.50;;;9.63;65.08
9695;BME280;4690;52.422;13.486;2024-01-25T09:25:13;101851.56;;;9.67;64.97
9695;BME280;4690;52.422;13.486;2024-01-25T09:27:39;101841.91;;;9.71;65.42
9695;BME280;4690;52.422;13.486;2024-01-25T09:30:08;101859.06;;;9.79;64.92
9695;BME280;4690;52.422;13.486;2024-01-25T09:32:34;101854.06;;;9.83;64.17
9695;BME280;4690;52.422;13.486;2024-01-25T09:34:59;101856.16;;;9.81;64.71
9695;BME280;4690;52.422;13.486;2024-01-25T09:37:25;101859.78;;;9.67;64.92
9695;BME280;4690;52.422;13.486;2024-01-25T09:39:51;101867.44;;;9.56;65.12
9695;BME280;4690;52.422;13.486;2024-01-25T09:42:18;101874.50;;;9.65;65.20
9695;BME280;4690;52.422;13.486;2024-01-25T09:44:44;101863.94;;;9.62;64.92
9695;BME280;4690;52.422;13.486;2024-01-25T09:47:11;101880.78;;;9.81;64.53
9695;BME280;4690;52.422;13.486;2024-01-25T09:49:37;101880.41;;;9.84;64.97
9695;BME280;4690;52.422;13.486;2024-01-25T09:52:04;101902.03;;;9.79;65.13
9695;BME280;4690;52.422;13.486;2024-01-25T09:54:39;101887.66;;;9.77;64.93
9695;BME280;4690;52.422;13.486;2024-01-25T09:57:15;101893.50;;;9.52;65.60
9695;BME280;4690;52.422;13.486;2024-01-25T09:59:43;101897.75;;;9.55;65.34
9695;BME280;4690;52.422;13.486;2024-01-25T10:02:10;101894.25;;;9.61;65.39
9695;BME280;4690;52.422;13.486;2024-01-25T10:04:36;101898.97;;;9.52;65.39
9695;BME280;4690;52.422;13.486;2024-01-25T10:07:02;101885.56;;;9.57;65.48
9695;BME280;4690;52.422;13.486;2024-01-25T10:09:28;101894.91;;;9.63;65.02
9695;BME280;4690;52.422;13.486;2024-01-25T10:11:54;101897.44;;;9.64;65.54
9695;BME280;4690;52.422;13.486;2024-01-25T10:14:20;101904.47;;;9.74;65.67
9695;BME280;4690;52.422;13.486;2024-01-25T10:16:46;101890.78;;;9.52;66.58
9695;BME280;4690;52.422;13.486;2024-01-25T10:19:12;101892.66;;;9.52;65.83
9695;BME280;4690;52.422;13.486;2024-01-25T10:21:41;101903.78;;;9.50;66.24
9695;BME280;4690;52.422;13.486;2024-01-25T10:24:06;101893.13;;;9.55;66.71
9695;BME280;4690;52.422;13.486;2024-01-25T10:26:34;101893.66;;;9.65;66.29
9695;BME280;4690;52.422;13.486;2024-01-25T10:29:01;101906.13;;;9.53;65.53
9695;BME280;4690;52.422;13.486;2024-01-25T10:31:29;101900.31;;;9.41;66.21
9695;BME280;4690;52.422;13.486;2024-01-25T10:33:56;101911.81;;;9.52;66.79
9695;BME280;4690;52.422;13.486;2024-01-25T10:36:22;101919.78;;;9.68;66.19
9695;BME280;4690;52.422;13.486;2024-01-25T10:38:49;101923.75;;;9.80;65.83
9695;BME280;4690;52.422;13.486;2024-01-25T10:41:17;101915.31;;;9.97;65.50
9695;BME280;4690;52.422;13.486;2024-01-25T10:43:45;101923.00;;;10.08;64.56
9695;BME280;4690;52.422;13.486;2024-01-25T10:46:11;101907.09;;;9.97;63.94
9695;BME280;4690;52.422;13.486;2024-01-25T10:48:38;101942.41;;;9.77;64.73
9695;BME280;4690;52.422;13.486;2024-01-25T10:51:05;101923.22;;;9.55;65.83
9695;BME280;4690;52.422;13.486;2024-01-25T10:53:34;101938.00;;;9.76;65.49
9695;BME280;4690;52.422;13.486;2024-01-25T10:56:01;101935.94;;;9.78;65.83
9695;BME280;4690;52.422;13.486;2024-01-25T10:58:34;101936.38;;;9.81;65.39
9695;BME280;4690;52.422;13.486;2024-01-25T11:01:01;101928.44;;;9.86;64.90
9695;BME280;4690;52.422;13.486;2024-01-25T11:03:35;101936.31;;;9.96;65.01
9695;BME280;4690;52.422;13.486;2024-01-25T11:06:11;101929.81;;;10.19;64.63
9695;BME280;4690;52.422;13.486;2024-01-25T11:08:38;101930.72;;;10.04;64.05
9695;BME280;4690;52.422;13.486;2024-01-25T11:11:10;101945.94;;;10.07;64.38
9695;BME280;4690;52.422;13.486;2024-01-25T11:13:40;101947.03;;;10.13;64.08
9695;BME280;4690;52.422;13.486;2024-01-25T11:16:24;101940.53;;;10.14;64.58
9695;BME280;4690;52.422;13.486;2024-01-25T11:18:55;101931.06;;;10.16;63.83
9695;BME280;4690;52.422;13.486;2024-01-25T11:21:43;101925.25;;;10.04;64.63
9695;BME280;4690;52.422;13.486;2024-01-25T11:24:21;101939.16;;;10.24;64.09
9695;BME280;4690;52.422;13.486;2024-01-25T11:26:49;101940.28;;;9.94;63.53
9695;BME280;4690;52.422;13.486;2024-01-25T11:29:20;101938.69;;;9.99;64.13
9695;BME280;4690;52.422;13.486;2024-01-25T11:31:50;101924.81;;;10.22;63.75
9695;BME280;4690;52.422;13.486;2024-01-25T11:34:17;101926.94;;;10.42;63.13
9695;BME280;4690;52.422;13.486;2024-01-25T11:36:47;101932.06;;;10.30;63.55
9695;BME280;4690;52.422;13.486;2024-01-25T11:39:15;101946.72;;;10.37;63.03
9695;BME280;4690;52.422;13.486;2024-01-25T11:41:45;101932.25;;;10.50;62.10
9695;BME280;4690;52.422;13.486;2024-01-25T11:44:14;101939.91;;;10.54;62.30
9695;BME280;4690;52.422;13.486;2024-01-25T11:46:40;101947.59;;;10.44;62.28
9695;BME280;4690;52.422;13.486;2024-01-25T11:49:06;101951.25;;;10.30;61.99
9695;BME280;4690;52.422;13.486;2024-01-25T11:51:34;101952.31;;;10.29;62.30
9695;BME280;4690;52.422;13.486;2024-01-25T11:54:00;101940.91;;;10.10;63.18
9695;BME280;4690;52.422;13.486;2024-01-25T11:56:33;101951.66;;;10.27;62.93
9695;BME280;4690;52.422;13.486;2024-01-25T11:59:02;101971.78;;;10.19;62.85
9695;BME280;4690;52.422;13.486;2024-01-25T12:01:29;101960.63;;;10.21;63.57
9695;BME280;4690;52.422;13.486;2024-01-25T12:03:56;101959.09;;;10.33;62.65
9695;BME280;4690;52.422;13.486;2024-01-25T12:06:22;101964.19;;;10.36;62.21
9695;BME280;4690;52.422;13.486;2024-01-25T12:08:47;101965.38;;;10.48;61.81
9695;BME280;4690;52.422;13.486;2024-01-25T12:11:14;101956.53;;;10.53;61.59
9695;BME280;4690;52.422;13.486;2024-01-25T12:13:42;101968.03;;;10.63;61.07
9695;BME280;4690;52.422;13.486;2024-01-25T12:16:10;101947.41;;;10.67;60.96
9695;BME280;4690;52.422;13.486;2024-01-25T12:18:38;101968.25;;;10.62;61.57
9695;BME280;4690;52.422;13.486;2024-01-25T12:21:05;101960.63;;;10.64;61.80
9695;BME280;4690;52.422;13.486;2024-01-25T12:23:39;101951.72;;;10.55;61.87
9695;BME280;4690;52.422;13.486;2024-01-25T12:26:08;101959.00;;;10.97;60.88
9695;BME280;4690;52.422;13.486;2024-01-25T12:28:35;101950.31;;;10.87;60.43
9695;BME280;4690;52.422;13.486;2024-01-25T12:31:03;101964.72;;;10.96;60.82
9695;BME280;4690;52.422;13.486;2024-01-25T12:33:31;101960.41;;;10.87;61.15
9695;BME280;4690;52.422;13.486;2024-01-25T12:35:57;101958.03;;;11.05;61.21
9695;BME280;4690;52.422;13.486;2024-01-25T12:38:24;101954.22;;;11.06;59.97
9695;BME280;4690;52.422;13.486;2024-01-25T12:40:51;101975.00;;;10.87;60.57
9695;BME280;4690;52.422;13.486;2024-01-25T12:43:21;101949.00;;;10.83;61.28
9695;BME280;4690;52.422;13.486;2024-01-25T12:45:49;101957.63;;;10.80;61.52
9695;BME280;4690;52.422;13.486;2024-01-25T12:48:17;101962.56;;;10.91;61.70
9695;BME280;4690;52.422;13.486;2024-01-25T12:50:43;101960.06;;;10.96;61.48
9695;BME280;4690;52.422;13.486;2024-01-25T12:53:13;101964.47;;;10.91;60.85
9695;BME280;4690;52.422;13.486;2024-01-25T12:55:40;101957.38;;;11.03;61.26
9695;BME280;4690;52.422;13.486;2024-01-25T12:58:06;101961.41;;;11.07;60.19
9695;BME280;4690;52.422;13.486;2024-01-25T13:00:31;101954.63;;;11.03;61.02
9695;BME280;4690;52.422;13.486;2024-01-25T13:02:58;101946.47;;;11.10;60.26
9695;BME280;4690;52.422;13.486;2024-01-25T13:05:27;101945.91;;;11.21;60.43
9695;BME280;4690;52.422;13.486;2024-01-25T13:07:53;101938.94;;;11.25;59.70
9695;BME280;4690;52.422;13.486;2024-01-25T13:10:19;101936.81;;;11.20;60.43
9695;BME280;4690;52.422;13.486;2024-01-25T13:12:45;101933.63;;;11.17;60.30
9695;BME280;4690;52.422;13.486;2024-01-25T13:15:10;101935.97;;;11.20;59.71